sensor_id;sensor_type;location;lat;lon;timestamp;pressure;altitude;pressure_sealevel;temperature;humidity
26859;BME280;14429;48.346;16.338;2023-02-02T00:01:53;99744.69;;;8.60;54.84
26859;BME280;14429;48.346;16.338;2023-02-02T00:04:24;99734.56;;;8.37;55.46
26859;BME280;14429;48.346;16.338;2023-02-02T00:06:51;99700.22;;;8.21;55.76
26859;BME280;14429;48.346;16.338;2023-02-02T00:09:18;99660.63;;;8.59;54.43
26859;BME280;14429;48.346;16.338;2023-02-02T00:11:46;99672.78;;;8.77;54.34
26859;BME280;14429;48.346;16.338;2023-02-02T00:14:12;99670.28;;;8.46;55.17
26859;BME280;14429;48.346;16.338;2023-02-02T00:16:41;99670.13;;;8.77;54.69
26859;BME280;14429;48.346;16.338;2023-02-02T00:19:09;99666.91;;;8.72;55.27
26859;BME280;14429;48.346;16.338;2023-02-02T00:21:35;99661.00;;;8.81;54.32
26859;BME280;14429;48.346;16.338;2023-02-02T00:24:00;99659.31;;;8.80;54.16
26859;BME280;14429;48.346;16.338;2023-02-02T00:26:26;99661.19;;;8.50;55.08
26859;BME280;14429;48.346;16.338;2023-02-02T00:28:53;99654.34;;;8.74;54.14
26859;BME280;14429;48.346;16.338;2023-02-02T00:31:18;99668.06;;;8.25;56.25
26859;BME280;14429;48.346;16.338;2023-02-02T00:33:44;99651.13;;;8.69;54.66
26859;BME280;14429;48.346;16.338;2023-02-02T00:36:10;99645.25;;;8.78;53.74
26859;BME280;14429;48.346;16.338;2023-02-02T00:38:35;99643.16;;;8.55;54.76
26859;BME280;14429;48.346;16.338;2023-02-02T00:41:00;99630.19;;;8.64;55.16
26859;BME280;14429;48.346;16.338;2023-02-02T00:43:26;99646.78;;;8.68;54.87
26859;BME280;14429;48.346;16.338;2023-02-02T00:45:53;99639.47;;;8.71;54.78
26859;BME280;14429;48.346;16.338;2023-02-02T00:48:18;99627.97;;;8.85;54.17
26859;BME280;14429;48.346;16.338;2023-02-02T00:50:44;99646.66;;;8.97;53.63
26859;BME280;14429;48.346;16.338;2023-02-02T00:53:09;99650.56;;;8.91;53.45
26859;BME280;14429;48.346;16.338;2023-02-02T00:55:35;99662.25;;;8.75;54.06
26859;BME280;14429;48.346;16.338;2023-02-02T00:58:00;99680.84;;;8.89;53.60
26859;BME280;14429;48.346;16.338;2023-02-02T01:00:26;99664.44;;;8.83;53.57
26859;BME280;14429;48.346;16.338;2023-02-02T01:02:53;99663.09;;;8.62;54.69
26859;BME280;14429;48.346;16.338;2023-02-02T01:05:19;99666.41;;;8.65;54.63
26859;BME280;14429;48.346;16.338;2023-02-02T01:07:46;99668.97;;;8.67;55.35
26859;BME280;14429;48.346;16.338;2023-02-02T01:12:42;99670.31;;;8.74;54.97
26859;BME280;14429;48.346;16.338;2023-02-02T01:15:09;99681.22;;;8.83;54.31
26859;BME280;14429;48.346;16.338;2023-02-02T01:17:35;99679.22;;;8.73;54.54
26859;BME280;14429;48.346;16.338;2023-02-02T01:20:02;99672.00;;;8.88;53.83
26859;BME280;14429;48.346;16.338;2023-02-02T01:22:27;99687.97;;;8.88;53.58
26859;BME280;14429;48.346;16.338;2023-02-02T01:24:53;99666.63;;;8.76;53.63
26859;BME280;14429;48.346;16.338;2023-02-02T01:27:18;99655.88;;;8.91;53.17
26859;BME280;14429;48.346;16.338;2023-02-02T01:29:43;99657.78;;;8.76;53.94
26859;BME280;14429;48.346;16.338;2023-02-02T01:32:09;99636.91;;;8.70;54.46
26859;BME280;14429;48.346;16.338;2023-02-02T01:34:35;99645.25;;;8.78;54.53
26859;BME280;14429;48.346;16.338;2023-02-02T01:37:02;99658.16;;;8.42;56.34
26859;BME280;14429;48.346;16.338;2023-02-02T01:39:27;99670.63;;;8.13;57.25
26859;BME280;14429;48.346;16.338;2023-02-02T01:41:52;99671.78;;;8.36;56.03
26859;BME280;14429;48.346;16.338;2023-02-02T01:45:02;99668.38;;;8.48;55.08
26859;BME280;14429;48.346;16.338;2023-02-02T01:47:32;99666.69;;;8.75;53.87
26859;BME280;14429;48.346;16.338;2023-02-02T01:49:59;99669.28;;;8.76;53.69
26859;BME280;14429;48.346;16.338;2023-02-02T01:52:28;99662.41;;;8.86;53.06
26859;BME280;14429;48.346;16.338;2023-02-02T01:54:58;99664.13;;;8.46;55.29
26859;BME280;14429;48.346;16.338;2023-02-02T01:57:28;99670.97;;;8.50;54.96
26859;BME280;14429;48.346;16.338;2023-02-02T01:59:57;99668.19;;;8.37;56.17
26859;BME280;14429;48.346;16.338;2023-02-02T02:02:26;99664.03;;;8.61;55.24
26859;BME280;14429;48.346;16.338;2023-02-02T02:04:52;99662.59;;;8.56;55.47
26859;BME280;14429;48.346;16.338;2023-02-02T02:07:19;99661.00;;;8.81;54.22
26859;BME280;14429;48.346;16.338;2023-02-02T02:09:46;99666.78;;;8.46;55.18
26859;BME280;14429;48.346;16.338;2023-02-02T02:12:13;99675.03;;;8.55;54.87
26859;BME280;14429;48.346;16.338;2023-02-02T02:14:39;99678.00;;;8.64;54.15
26859;BME280;14429;48.346;16.338;2023-02-02T02:17:16;99677.13;;;8.78;53.54
26859;BME280;14429;48.346;16.338;2023-02-02T02:23:29;99673.16;;;8.57;54.56
26859;BME280;14429;48.346;16.338;2023-02-02T02:26:16;99680.69;;;8.22;56.19
26859;BME280;14429;48.346;16.338;2023-02-02T02:29:02;99674.38;;;8.52;55.66
26859;BME280;14429;48.346;16.338;2023-02-02T02:34:47;99668.94;;;8.39;55.68
26859;BME280;14429;48.346;16.338;2023-02-02T02:37:24;99672.38;;;8.55;54.56
26859;BME280;14429;48.346;16.338;2023-02-02T02:39:56;99660.41;;;8.48;54.83
26859;BME280;14429;48.346;16.338;2023-02-02T02:42:24;99671.84;;;8.64;54.02
26859;BME280;14429;48.346;16.338;2023-02-02T02:44:52;99660.81;;;8.84;53.01
26859;BME280;14429;48.346;16.338;2023-02-02T02:47:20;99662.16;;;8.90;52.84
26859;BME280;14429;48.346;16.338;2023-02-02T02:49:48;99654.19;;;8.49;54.51
26859;BME280;14429;48.346;16.338;2023-02-02T02:52:14;99653.03;;;8.67;54.32
26859;BME280;14429;48.346;16.338;2023-02-02T02:54:42;99647.69;;;8.26;56.04
26859;BME280;14429;48.346;16.338;2023-02-02T03:00:11;99646.84;;;8.53;54.82
26859;BME280;14429;48.346;16.338;2023-02-02T03:02:45;99647.72;;;8.67;54.22
26859;BME280;14429;48.346;16.338;2023-02-02T03:05:30;99659.13;;;8.69;54.13
26859;BME280;14429;48.346;16.338;2023-02-02T03:08:03;99655.09;;;8.89;52.86
26859;BME280;14429;48.346;16.338;2023-02-02T03:10:30;99658.63;;;8.76;53.19
26859;BME280;14429;48.346;16.338;2023-02-02T03:12:57;99665.16;;;8.71;53.43
26859;BME280;14429;48.346;16.338;2023-02-02T03:15:22;99662.44;;;8.72;53.53
26859;BME280;14429;48.346;16.338;2023-02-02T03:17:49;99660.59;;;8.32;54.59
26859;BME280;14429;48.346;16.338;2023-02-02T03:20:16;99664.88;;;8.48;55.37
26859;BME280;14429;48.346;16.338;2023-02-02T03:22:43;99659.69;;;8.46;55.16
26859;BME280;14429;48.346;16.338;2023-02-02T03:25:09;99657.47;;;8.39;55.54
26859;BME280;14429;48.346;16.338;2023-02-02T03:27:35;99669.91;;;8.52;54.71
26859;BME280;14429;48.346;16.338;2023-02-02T03:30:01;99668.59;;;8.73;53.76
26859;BME280;14429;48.346;16.338;2023-02-02T03:32:26;99664.97;;;8.60;54.40
26859;BME280;14429;48.346;16.338;2023-02-02T03:34:52;99667.16;;;8.81;53.34
26859;BME280;14429;48.346;16.338;2023-02-02T03:37:17;99666.13;;;8.84;52.86
26859;BME280;14429;48.346;16.338;2023-02-02T03:39:44;99661.94;;;8.66;53.33
26859;BME280;14429;48.346;16.338;2023-02-02T03:42:09;99669.72;;;8.55;54.11
26859;BME280;14429;48.346;16.338;2023-02-02T03:44:35;99662.88;;;8.37;54.95
26859;BME280;14429;48.346;16.338;2023-02-02T03:47:00;99661.13;;;8.23;54.60
26859;BME280;14429;48.346;16.338;2023-02-02T03:49:26;99654.06;;;8.37;55.23
26859;BME280;14429;48.346;16.338;2023-02-02T03:51:51;99656.03;;;8.20;55.12
26859;BME280;14429;48.346;16.338;2023-02-02T03:54:17;99649.50;;;8.39;55.07
26859;BME280;14429;48.346;16.338;2023-02-02T03:56:43;99648.47;;;8.55;54.15
26859;BME280;14429;48.346;16.338;2023-02-02T03:59:09;99640.97;;;8.48;54.24
26859;BME280;14429;48.346;16.338;2023-02-02T04:01:34;99655.47;;;8.56;53.74
26859;BME280;14429;48.346;16.338;2023-02-02T04:04:00;99661.31;;;8.90;52.53
26859;BME280;14429;48.346;16.338;2023-02-02T04:06:25;99644.88;;;8.84;52.56
26859;BME280;14429;48.346;16.338;2023-02-02T04:08:51;99648.66;;;8.80;53.32
26859;BME280;14429;48.346;16.338;2023-02-02T04:11:17;99658.34;;;8.67;54.05
26859;BME280;14429;48.346;16.338;2023-02-02T04:13:43;99656.63;;;8.52;54.85
26859;BME280;14429;48.346;16.338;2023-02-02T04:16:10;99655.44;;;8.71;54.42
26859;BME280;14429;48.346;16.338;2023-02-02T04:18:35;99650.84;;;8.60;54.02
26859;BME280;14429;48.346;16.338;2023-02-02T04:21:01;99659.13;;;8.83;53.38
26859;BME280;14429;48.346;16.338;2023-02-02T04:23:27;99651.59;;;8.89;53.17
26859;BME280;14429;48.346;16.338;2023-02-02T04:25:52;99657.00;;;8.74;53.46
26859;BME280;14429;48.346;16.338;2023-02-02T04:28:18;99664.22;;;8.86;52.86
26859;BME280;14429;48.346;16.338;2023-02-02T04:30:45;99669.34;;;9.02;51.98
26859;BME280;14429;48.346;16.338;2023-02-02T04:33:10;99685.38;;;9.01;nan
26859;BME280;14429;48.346;16.338;2023-02-02T04:35:36;99691.97;;;8.68;53.60
26859;BME280;14429;48.346;16.338;2023-02-02T04:38:01;99700.47;;;8.59;54.34
26859;BME280;14429;48.346;16.338;2023-02-02T04:40:27;99692.31;;;8.62;54.58
26859;BME280;14429;48.346;16.338;2023-02-02T04:42:52;99700.06;;;8.37;55.50
26859;BME280;14429;48.346;16.338;2023-02-02T04:45:18;99689.00;;;8.72;54.33
26859;BME280;14429;48.346;16.338;2023-02-02T04:47:45;99672.88;;;8.75;54.08
26859;BME280;14429;48.346;16.338;2023-02-02T04:50:10;99666.50;;;8.91;53.01
26859;BME280;14429;48.346;16.338;2023-02-02T04:52:36;99663.00;;;8.91;52.90
26859;BME280;14429;48.346;16.338;2023-02-02T04:55:01;99655.94;;;9.04;52.29
26859;BME280;14429;48.346;16.338;2023-02-02T04:57:27;99664.41;;;9.10;51.77
26859;BME280;14429;48.346;16.338;2023-02-02T04:59:52;99658.41;;;9.07;51.71
26859;BME280;14429;48.346;16.338;2023-02-02T05:02:18;99657.50;;;8.94;52.44
26859;BME280;14429;48.346;16.338;2023-02-02T05:04:45;99664.03;;;8.88;53.04
26859;BME280;14429;48.346;16.338;2023-02-02T05:07:10;99665.94;;;8.73;53.85
26859;BME280;14429;48.346;16.338;2023-02-02T05:09:35;99675.69;;;8.86;53.79
26859;BME280;14429;48.346;16.338;2023-02-02T05:12:01;99665.94;;;8.87;53.32
26859;BME280;14429;48.346;16.338;2023-02-02T05:14:26;99680.56;;;8.80;53.23
26859;BME280;14429;48.346;16.338;2023-02-02T05:16:52;99676.84;;;8.96;52.60
26859;BME280;14429;48.346;16.338;2023-02-02T05:19:17;99694.03;;;9.04;52.23
26859;BME280;14429;48.346;16.338;2023-02-02T05:21:44;99683.00;;;9.10;51.96
26859;BME280;14429;48.346;16.338;2023-02-02T05:24:10;99681.88;;;9.14;51.64
26859;BME280;14429;48.346;16.338;2023-02-02T05:26:35;99685.56;;;9.12;51.44
26859;BME280;14429;48.346;16.338;2023-02-02T05:29:01;99688.25;;;8.84;52.39
26859;BME280;14429;48.346;16.338;2023-02-02T05:31:26;99687.97;;;8.88;52.99
26859;BME280;14429;48.346;16.338;2023-02-02T05:33:52;99686.25;;;8.74;54.01
26859;BME280;14429;48.346;16.338;2023-02-02T05:36:17;99677.97;;;8.78;53.70
26859;BME280;14429;48.346;16.338;2023-02-02T05:38:44;99683.59;;;8.88;53.31
26859;BME280;14429;48.346;16.338;2023-02-02T05:41:10;99685.47;;;8.86;52.75
26859;BME280;14429;48.346;16.338;2023-02-02T05:43:36;99688.81;;;8.89;52.65
26859;BME280;14429;48.346;16.338;2023-02-02T05:46:01;99690.63;;;8.88;52.32
26859;BME280;14429;48.346;16.338;2023-02-02T05:48:27;99695.34;;;8.97;51.82
26859;BME280;14429;48.346;16.338;2023-02-02T05:50:58;99712.06;;;8.86;51.79
26859;BME280;14429;48.346;16.338;2023-02-02T05:53:25;99700.84;;;8.67;52.36
26859;BME280;14429;48.346;16.338;2023-02-02T05:55:52;99700.19;;;8.77;52.84
26859;BME280;14429;48.346;16.338;2023-02-02T05:58:18;99713.00;;;8.71;53.60
26859;BME280;14429;48.346;16.338;2023-02-02T06:00:43;99726.50;;;8.68;53.72
26859;BME280;14429;48.346;16.338;2023-02-02T06:03:09;99722.31;;;8.64;54.08
26859;BME280;14429;48.346;16.338;2023-02-02T06:05:34;99722.31;;;8.64;53.74
26859;BME280;14429;48.346;16.338;2023-02-02T06:07:59;99731.97;;;8.51;53.61
26859;BME280;14429;48.346;16.338;2023-02-02T06:10:25;99737.31;;;8.79;52.87
26859;BME280;14429;48.346;16.338;2023-02-02T06:12:52;99733.63;;;8.95;52.16
26859;BME280;14429;48.346;16.338;2023-02-02T06:15:17;99739.81;;;8.95;51.79
26859;BME280;14429;48.346;16.338;2023-02-02T06:17:42;99736.59;;;8.90;52.02
26859;BME280;14429;48.346;16.338;2023-02-02T06:20:09;99745.94;;;8.82;51.99
26859;BME280;14429;48.346;16.338;2023-02-02T06:22:34;99749.50;;;8.83;52.41
26859;BME280;14429;48.346;16.338;2023-02-02T06:25:00;99750.59;;;8.65;53.24
26859;BME280;14429;48.346;16.338;2023-02-02T06:27:25;99751.16;;;8.70;53.57
26859;BME280;14429;48.346;16.338;2023-02-02T06:29:52;99758.97;;;8.73;53.84
26859;BME280;14429;48.346;16.338;2023-02-02T06:32:17;99752.91;;;8.85;53.49
26859;BME280;14429;48.346;16.338;2023-02-02T06:34:43;99764.28;;;8.73;53.08
26859;BME280;14429;48.346;16.338;2023-02-02T06:37:08;99768.28;;;8.93;52.25
26859;BME280;14429;48.346;16.338;2023-02-02T06:39:33;99756.50;;;8.97;51.91
26859;BME280;14429;48.346;16.338;2023-02-02T06:41:59;99765.81;;;9.04;51.69
26859;BME280;14429;48.346;16.338;2023-02-02T06:44:24;99766.59;;;9.06;51.33
26859;BME280;14429;48.346;16.338;2023-02-02T06:46:51;99784.25;;;9.07;51.29
26859;BME280;14429;48.346;16.338;2023-02-02T06:49:16;99776.06;;;8.96;51.29
26859;BME280;14429;48.346;16.338;2023-02-02T06:51:42;99791.44;;;8.91;52.39
26859;BME280;14429;48.346;16.338;2023-02-02T06:54:07;99804.72;;;8.78;52.76
26859;BME280;14429;48.346;16.338;2023-02-02T06:56:33;99809.91;;;8.65;53.39
26859;BME280;14429;48.346;16.338;2023-02-02T06:58:58;99810.53;;;8.84;53.21
26859;BME280;14429;48.346;16.338;2023-02-02T07:01:24;99809.00;;;8.80;53.03
26859;BME280;14429;48.346;16.338;2023-02-02T07:03:50;99813.56;;;8.92;52.49
26859;BME280;14429;48.346;16.338;2023-02-02T07:06:18;99808.94;;;8.95;52.11
26859;BME280;14429;48.346;16.338;2023-02-02T07:08:44;99819.00;;;9.04;51.70
26859;BME280;14429;48.346;16.338;2023-02-02T07:11:10;99820.72;;;9.05;51.24
26859;BME280;14429;48.346;16.338;2023-02-02T07:13:35;99815.97;;;9.10;51.44
26859;BME280;14429;48.346;16.338;2023-02-02T07:16:02;99819.91;;;8.89;52.47
26859;BME280;14429;48.346;16.338;2023-02-02T07:18:27;99829.41;;;8.80;52.83
26859;BME280;14429;48.346;16.338;2023-02-02T07:20:57;99817.53;;;8.85;53.20
26859;BME280;14429;48.346;16.338;2023-02-02T07:23:23;99817.94;;;8.79;53.57
26859;BME280;14429;48.346;16.338;2023-02-02T07:25:48;99817.72;;;8.82;53.29
26859;BME280;14429;48.346;16.338;2023-02-02T07:28:13;99829.63;;;8.90;52.69
26859;BME280;14429;48.346;16.338;2023-02-02T07:30:39;99819.38;;;8.98;52.15
26859;BME280;14429;48.346;16.338;2023-02-02T07:33:04;99823.19;;;8.94;51.89
26859;BME280;14429;48.346;16.338;2023-02-02T07:35:30;99828.97;;;9.01;51.59
26859;BME280;14429;48.346;16.338;2023-02-02T07:37:56;99825.72;;;8.96;51.39
26859;BME280;14429;48.346;16.338;2023-02-02T07:40:22;99836.56;;;9.07;51.30
26859;BME280;14429;48.346;16.338;2023-02-02T07:42:47;99836.47;;;8.94;51.98
26859;BME280;14429;48.346;16.338;2023-02-02T07:45:13;99840.09;;;8.78;52.58
26859;BME280;14429;48.346;16.338;2023-02-02T07:47:38;99837.56;;;8.48;53.48
26859;BME280;14429;48.346;16.338;2023-02-02T07:50:04;99837.16;;;8.69;53.54
26859;BME280;14429;48.346;16.338;2023-02-02T07:52:30;99839.09;;;8.81;53.32
26859;BME280;14429;48.346;16.338;2023-02-02T07:54:57;99844.69;;;8.76;52.46
26859;BME280;14429;48.346;16.338;2023-02-02T07:57:22;99843.09;;;8.88;52.28
26859;BME280;14429;48.346;16.338;2023-02-02T07:59:47;99842.34;;;8.99;51.84
26859;BME280;14429;48.346;16.338;2023-02-02T08:02:13;99842.72;;;8.93;52.04
26859;BME280;14429;48.346;16.338;2023-02-02T08:04:38;99832.28;;;9.04;51.41
26859;BME280;14429;48.346;16.338;2023-02-02T08:07:04;99822.44;;;9.06;51.25
26859;BME280;14429;48.346;16.338;2023-02-02T08:09:29;99837.22;;;8.96;51.64
26859;BME280;14429;48.346;16.338;2023-02-02T08:11:56;99836.66;;;8.91;52.17
26859;BME280;14429;48.346;16.338;2023-02-02T08:14:21;99831.97;;;8.81;52.86
26859;BME280;14429;48.346;16.338;2023-02-02T08:16:47;99842.31;;;8.86;52.95
26859;BME280;14429;48.346;16.338;2023-02-02T08:19:12;99837.94;;;8.85;52.86
26859;BME280;14429;48.346;16.338;2023-02-02T08:21:38;99847.47;;;8.88;52.72
26859;BME280;14429;48.346;16.338;2023-02-02T08:24:03;99841.69;;;8.96;52.15
26859;BME280;14429;48.346;16.338;2023-02-02T08:26:29;99835.16;;;9.01;51.55
26859;BME280;14429;48.346;16.338;2023-02-02T08:28:58;99834.94;;;9.04;51.57
26859;BME280;14429;48.346;16.338;2023-02-02T08:31:26;99847.78;;;9.12;51.02
26859;BME280;14429;48.346;16.338;2023-02-02T08:33:52;99857.56;;;9.11;51.10
26859;BME280;14429;48.346;16.338;2023-02-02T08:36:19;99860.50;;;9.07;51.45
26859;BME280;14429;48.346;16.338;2023-02-02T08:38:45;99857.47;;;8.99;52.13
26859;BME280;14429;48.346;16.338;2023-02-02T08:41:12;99859.41;;;8.82;53.08
26859;BME280;14429;48.346;16.338;2023-02-02T08:43:38;99863.78;;;8.83;53.32
26859;BME280;14429;48.346;16.338;2023-02-02T08:46:06;99869.69;;;8.88;52.89
26859;BME280;14429;48.346;16.338;2023-02-02T08:48:33;99871.03;;;8.94;52.56
26859;BME280;14429;48.346;16.338;2023-02-02T08:50:59;99864.88;;;8.94;52.34
26859;BME280;14429;48.346;16.338;2023-02-02T08:53:25;99872.38;;;9.01;51.75
26859;BME280;14429;48.346;16.338;2023-02-02T08:55:57;99874.94;;;9.03;51.36
26859;BME280;14429;48.346;16.338;2023-02-02T08:58:22;99875.22;;;9.12;51.19
26859;BME280;14429;48.346;16.338;2023-02-02T09:00:48;99882.47;;;9.10;51.14
26859;BME280;14429;48.346;16.338;2023-02-02T09:03:15;99868.94;;;8.99;51.52
26859;BME280;14429;48.346;16.338;2023-02-02T09:05:40;99877.09;;;8.96;52.22
26859;BME280;14429;48.346;16.338;2023-02-02T09:08:05;99873.28;;;8.87;52.83
26859;BME280;14429;48.346;16.338;2023-02-02T09:10:34;99881.16;;;8.88;52.85
26859;BME280;14429;48.346;16.338;2023-02-02T09:12:59;99894.34;;;8.89;52.86
26859;BME280;14429;48.346;16.338;2023-02-02T09:15:24;99885.06;;;8.96;52.73
26859;BME280;14429;48.346;16.338;2023-02-02T09:17:51;99887.38;;;9.02;51.76
26859;BME280;14429;48.346;16.338;2023-02-02T09:20:18;99902.28;;;9.05;51.71
26859;BME280;14429;48.346;16.338;2023-02-02T09:22:43;99901.34;;;9.06;51.60
26859;BME280;14429;48.346;16.338;2023-02-02T09:25:08;99898.41;;;9.10;51.28
26859;BME280;14429;48.346;16.338;2023-02-02T09:27:36;99896.50;;;9.12;51.40
26859;BME280;14429;48.346;16.338;2023-02-02T09:30:02;99899.63;;;9.05;51.31
26859;BME280;14429;48.346;16.338;2023-02-02T09:32:27;99894.56;;;9.00;52.12
26859;BME280;14429;48.346;16.338;2023-02-02T09:34:53;99894.28;;;8.91;52.73
26859;BME280;14429;48.346;16.338;2023-02-02T09:37:19;99900.78;;;8.86;53.18
26859;BME280;14429;48.346;16.338;2023-02-02T09:39:45;99890.94;;;8.88;52.91
26859;BME280;14429;48.346;16.338;2023-02-02T09:45:07;99892.53;;;9.05;51.89
26859;BME280;14429;48.346;16.338;2023-02-02T09:47:56;99892.41;;;9.07;51.69
26859;BME280;14429;48.346;16.338;2023-02-02T09:50:36;99887.78;;;9.10;51.02
26859;BME280;14429;48.346;16.338;2023-02-02T09:53:12;99886.75;;;9.13;51.21
26859;BME280;14429;48.346;16.338;2023-02-02T09:55:41;99887.94;;;9.07;51.08
26859;BME280;14429;48.346;16.338;2023-02-02T09:58:13;99903.50;;;8.99;51.91
26859;BME280;14429;48.346;16.338;2023-02-02T10:00:43;99894.00;;;8.95;52.65
26859;BME280;14429;48.346;16.338;2023-02-02T10:03:14;99896.25;;;8.88;52.67
26859;BME280;14429;48.346;16.338;2023-02-02T10:05:47;99901.56;;;8.88;53.29
26859;BME280;14429;48.346;16.338;2023-02-02T10:08:20;99902.94;;;8.94;52.69
26859;BME280;14429;48.346;16.338;2023-02-02T10:10:48;99908.66;;;9.02;52.12
26859;BME280;14429;48.346;16.338;2023-02-02T10:13:17;99905.53;;;9.10;51.75
26859;BME280;14429;48.346;16.338;2023-02-02T10:15:50;99912.28;;;9.15;51.57
26859;BME280;14429;48.346;16.338;2023-02-02T10:18:23;99911.06;;;9.20;51.17
26859;BME280;14429;48.346;16.338;2023-02-02T10:20:53;99914.03;;;9.16;50.97
26859;BME280;14429;48.346;16.338;2023-02-02T10:23:26;99922.13;;;8.99;52.64
26859;BME280;14429;48.346;16.338;2023-02-02T10:25:56;99918.88;;;8.94;52.34
26859;BME280;14429;48.346;16.338;2023-02-02T10:28:41;99920.53;;;8.82;53.03
26859;BME280;14429;48.346;16.338;2023-02-02T10:31:14;99920.69;;;8.79;53.23
26859;BME280;14429;48.346;16.338;2023-02-02T10:33:43;99915.63;;;8.89;53.17
26859;BME280;14429;48.346;16.338;2023-02-02T10:36:18;99922.13;;;8.99;52.48
26859;BME280;14429;48.346;16.338;2023-02-02T10:38:52;99916.44;;;9.05;52.04
26859;BME280;14429;48.346;16.338;2023-02-02T10:41:23;99901.06;;;9.10;51.61
26859;BME280;14429;48.346;16.338;2023-02-02T10:44:03;99908.78;;;9.14;51.30
26859;BME280;14429;48.346;16.338;2023-02-02T10:46:32;99919.34;;;9.16;50.84
26859;BME280;14429;48.346;16.338;2023-02-02T10:49:23;99921.53;;;8.94;51.87
26859;BME280;14429;48.346;16.338;2023-02-02T10:51:54;99920.88;;;9.05;51.64
26859;BME280;14429;48.346;16.338;2023-02-02T10:54:33;99928.84;;;8.91;52.76
26859;BME280;14429;48.346;16.338;2023-02-02T10:57:01;99930.03;;;8.86;52.78
26859;BME280;14429;48.346;16.338;2023-02-02T10:59:31;99922.75;;;8.89;53.06
26859;BME280;14429;48.346;16.338;2023-02-02T11:01:57;99923.16;;;8.97;52.33
26859;BME280;14429;48.346;16.338;2023-02-02T11:04:23;99929.75;;;9.05;51.88
26859;BME280;14429;48.346;16.338;2023-02-02T11:06:49;99932.03;;;9.11;51.53
26859;BME280;14429;48.346;16.338;2023-02-02T11:09:18;99923.09;;;9.12;51.44
26859;BME280;14429;48.346;16.338;2023-02-02T11:11:49;99916.94;;;9.12;50.94
26859;BME280;14429;48.346;16.338;2023-02-02T11:14:20;99928.84;;;9.20;50.66
26859;BME280;14429;48.346;16.338;2023-02-02T11:16:59;99921.78;;;9.19;51.01
26859;BME280;14429;48.346;16.338;2023-02-02T11:19:28;99930.88;;;9.01;52.01
26859;BME280;14429;48.346;16.338;2023-02-02T11:21:55;99924.00;;;8.97;52.22
26859;BME280;14429;48.346;16.338;2023-02-02T11:24:23;99929.31;;;8.97;52.71
26859;BME280;14429;48.346;16.338;2023-02-02T11:26:53;99939.03;;;8.98;52.67
26859;BME280;14429;48.346;16.338;2023-02-02T11:29:24;99933.59;;;9.00;52.36
26859;BME280;14429;48.346;16.338;2023-02-02T11:31:51;99928.63;;;9.09;52.00
26859;BME280;14429;48.346;16.338;2023-02-02T11:34:18;99926.53;;;9.14;51.48
26859;BME280;14429;48.346;16.338;2023-02-02T11:36:58;99919.13;;;9.19;51.15
26859;BME280;14429;48.346;16.338;2023-02-02T11:39:24;99920.88;;;9.20;50.89
26859;BME280;14429;48.346;16.338;2023-02-02T11:41:49;99927.88;;;9.21;50.58
26859;BME280;14429;48.346;16.338;2023-02-02T11:44:23;99915.72;;;9.17;51.26
26859;BME280;14429;48.346;16.338;2023-02-02T11:46:50;99928.63;;;9.09;52.13
26859;BME280;14429;48.346;16.338;2023-02-02T11:49:17;99914.53;;;9.07;52.19
26859;BME280;14429;48.346;16.338;2023-02-02T11:51:55;99920.88;;;9.05;52.14
26859;BME280;14429;48.346;16.338;2023-02-02T11:54:25;99921.25;;;8.99;52.72
26859;BME280;14429;48.346;16.338;2023-02-02T11:56:52;99927.09;;;9.05;52.31
26859;BME280;14429;48.346;16.338;2023-02-02T11:59:29;99917.78;;;9.12;51.75
26859;BME280;14429;48.346;16.338;2023-02-02T12:02:27;99918.38;;;9.17;51.58
26859;BME280;14429;48.346;16.338;2023-02-02T12:05:12;99915.34;;;9.23;51.05
26859;BME280;14429;48.346;16.338;2023-02-02T12:07:39;99916.19;;;9.23;50.91
26859;BME280;14429;48.346;16.338;2023-02-02T12:10:12;99910.00;;;9.23;51.18
26859;BME280;14429;48.346;16.338;2023-02-02T12:12:40;99908.88;;;9.13;51.68
26859;BME280;14429;48.346;16.338;2023-02-02T12:15:18;99905.53;;;9.10;52.00
26859;BME280;14429;48.346;16.338;2023-02-02T12:17:47;99903.34;;;9.02;52.66
26859;BME280;14429;48.346;16.338;2023-02-02T12:20:21;99905.81;;;9.05;52.61
26859;BME280;14429;48.346;16.338;2023-02-02T12:23:19;99904.94;;;9.05;52.30
26859;BME280;14429;48.346;16.338;2023-02-02T12:26:04;99911.59;;;9.12;52.08
26859;BME280;14429;48.346;16.338;2023-02-02T12:28:44;99903.16;;;9.19;51.55
26859;BME280;14429;48.346;16.338;2023-02-02T12:31:20;99906.44;;;9.24;51.12
26859;BME280;14429;48.346;16.338;2023-02-02T12:33:53;99893.69;;;9.29;50.70
26859;BME280;14429;48.346;16.338;2023-02-02T12:36:32;99879.84;;;9.24;51.10
26859;BME280;14429;48.346;16.338;2023-02-02T12:39:12;99885.50;;;9.18;51.97
26859;BME280;14429;48.346;16.338;2023-02-02T12:41:54;99886.06;;;9.09;52.24
26859;BME280;14429;48.346;16.338;2023-02-02T12:44:30;99884.53;;;9.05;52.22
26859;BME280;14429;48.346;16.338;2023-02-02T12:47:07;99893.28;;;9.07;52.47
26859;BME280;14429;48.346;16.338;2023-02-02T12:49:58;99885.78;;;9.14;52.40
26859;BME280;14429;48.346;16.338;2023-02-02T12:52:36;99884.34;;;9.08;52.21
26859;BME280;14429;48.346;16.338;2023-02-02T12:55:15;99883.63;;;9.20;51.41
26859;BME280;14429;48.346;16.338;2023-02-02T12:57:49;99889.13;;;9.17;51.44
26859;BME280;14429;48.346;16.338;2023-02-02T13:00:26;99888.28;;;9.16;51.06
26859;BME280;14429;48.346;16.338;2023-02-02T13:03:04;99886.84;;;9.25;50.90
26859;BME280;14429;48.346;16.338;2023-02-02T13:05:41;99885.69;;;9.15;50.81
26859;BME280;14429;48.346;16.338;2023-02-02T13:08:14;99896.59;;;9.11;51.91
26859;BME280;14429;48.346;16.338;2023-02-02T13:10:42;99887.16;;;8.91;52.18
26859;BME280;14429;48.346;16.338;2023-02-02T13:13:13;99889.09;;;9.03;52.73
26859;BME280;14429;48.346;16.338;2023-02-02T13:15:43;99884.34;;;9.08;52.54
26859;BME280;14429;48.346;16.338;2023-02-02T13:18:14;99894.22;;;9.06;52.05
26859;BME280;14429;48.346;16.338;2023-02-02T13:20:45;99892.53;;;9.19;51.50
26859;BME280;14429;48.346;16.338;2023-02-02T13:23:16;99894.06;;;9.23;51.35